Tuesday, May 03, 2016
20:13 UTC
  |  Log In   |  Register Free
Airport Search:

Kingsville Nas Airport
(KNQI)

FAA data valid effective Mar 31 2016 - May 26 2016 (unless otherwise noted).

 
 
 
 
 
 
 
 
 
 
 
 
 
 
Current Aviation Weather for KNQI

Weather Summary


The most recent METAR observation for NQI was updated at: 12:56 UTC
METAR for KNQI is not available. Closest METAR is for KRBO
KNQI  (most recent observation was updatred at 31:95 UTC)
031956Z 00000KT 10SM OVC090 26/13 A3001 RMK AO2 SLP158 T02560133 $

KRBO  (17.5 nm SW)   (most recent observation was updated at 31:95 UTC)
031955Z AUTO 06004G14KT 10SM BKN070 OVC080 27/10 A3000 RMK AO2 T02690102

KALI  (18.2 nm SE)   (most recent observation was updated at 31:95 UTC)
031953Z AUTO VRB06KT 10SM FEW085 27/09 A3000 RMK AO2 SLP157 T02670094 $

TAF for KNQI is not available.
KNQI
0315/0415 03010KT 9999 SCT037 BKN055 QNH3005INS FM031800 04011KT 9999 SCT045 BKN065 BKN250 QNH2998INS FM032100 06011KT 9999 FEW050 BKN080 BKN250 QNH2990INS FM040100 05008KT 9999 SCT080 SCT250 QNH2992INS FM040600 VRB05KT 9999 FEW080 QNH2996INS FM041300 02006KT 9999 FEW250 QNH3003INS T28/0320Z T14/0412Z FN00003

KALI  (18.2 nm SE)   (most recent observation was updatred at 31:73 UTC)
031732Z 0318/0418 05010G15KT P6SM FEW060 FM040000 06008KT P6SM SKC


KCRP  (22.8 nm SW)   (most recent observation was updatred at 31:73 UTC)
031732Z 0318/0418 03012G18KT P6SM FEW040 FEW250 FM040100 05007KT P6SM FEW250
GlobalAir.com is loading additional information.
 Current Weather at NQI
76.0 F° (24.4 C°)

East winds at 8.1 mph
Pressure:
30.03 in
Humidity:
50%
Wind:
East at 8.1 mph
Dew Point:
55.9 F° (13.3 C°)
Visibility:
10.00 mi
NQI NOAA Radar




Find All Airport Services Find A Hotel Find A Rental Car Find A Golf Course Find A Restaurant $100 Hamburger



Airport Weather Forecast for KNQI

Translated METAR for KNQI (1956 UTC)
METAR:
KNQI 031956Z 00000KT 10SM OVC090 26/13 A3001 RMK AO2 SLP158 T02560133 $
Conditions at:
KNQI (Kingsville Nas, TX) observed 1956 UTC 03 May 2016
Temperature:
26°C (78.8°F)
Dewpoint:
13°C (55.4°F) [RH = 44.6]
Pressure:
30.01 inches Hg (1016.3 mb)
pressure at sea level is 158 in Hg
Winds:
from the N (000 degrees) at 0 mph (0 knots: 0 m/s)
Visibility:
10 mile(s)
Ceiling:
9,000 feet AGL
Clouds:
Overcast Skies at 9,000 feet AGL
Remarks:
SOME DATA ABOVE MAY BE INACCURATE!!!
"$" is an indication the sensor requires maintenance
site is automated and HAS a precipitation sensor

Translated TAF for KNQI (Kingsville Nas, TX) ( UTC)
TAF text:
KNQI 0315/0415 03010KT 9999 SCT037 BKN055 QNH3005INS
Forecast period:
Tuesday May 03 2016 15:00 UTC - Wednesday May 04 2016 15:00 UTC
Forecast type:
FROM: standard forecast or significant change
Winds:
from the NNE (030 degrees) at 11.5 mph (10 knots: 5.1 m/s)
Visibility:
Ceiling:
5,500 feet AGL
Clouds:
Scattered Clouds at 3,700 feet AGL
Broken Cloud Cover at 5,500 feet AGL
Weather:
no significant weather observed at this time
TAF text:
FM031800 04011KT 9999 SCT045 BKN065 BKN250 QNH2998INS
Forecast period:
Tuesday May 03 2016 18:00 UTC - Tuesday May 03 2016 21:00 UTC
Forecast type:
FROM: standard forecast or significant change
Winds:
from the NE (040 degrees) at 12.7 mph (11 knots: 5.7 m/s)
Visibility:
Ceiling:
6,500 feet AGL
Clouds:
Scattered Clouds at 4,500 feet AGL
Broken Cloud Cover at 6,500 feet AGL
Broken Cloud Cover at 25,000 feet AGL
Weather:
no significant weather observed at this time
TAF text:
FM032100 06011KT 9999 FEW050 BKN080 BKN250 QNH2990INS
Forecast period:
Tuesday May 03 2016 21:00 UTC - Wednesday May 04 2016 01:00 UTC
Forecast type:
FROM: standard forecast or significant change
Winds:
from the ENE (060 degrees) at 12.7 mph (11 knots: 5.7 m/s)
Visibility:
Ceiling:
8,000 feet AGL
Clouds:
Few Clouds at 5,000 feet AGL
Broken Cloud Cover at 8,000 feet AGL
Broken Cloud Cover at 25,000 feet AGL
Weather:
no significant weather observed at this time
TAF text:
FM040100 05008KT 9999 SCT080 SCT250 QNH2992INS
Forecast period:
Wednesday May 04 2016 01:00 UTC - Wednesday May 04 2016 06:00 UTC
Forecast type:
FROM: standard forecast or significant change
Winds:
from the NE (050 degrees) at 9.2 mph (8 knots: 4.1 m/s)
Visibility:
Ceiling:
at least 12,000 feet AGL
Clouds:
Scattered Clouds at 8,000 feet AGL
Scattered Clouds at 25,000 feet AGL
Weather:
no significant weather observed at this time
TAF text:
FM040600 VRB05KT 9999 FEW080 QNH2996INS
Forecast period:
Wednesday May 04 2016 06:00 UTC - Wednesday May 04 2016 13:00 UTC
Forecast type:
FROM: standard forecast or significant change
Winds:
variable wind direction at 5.8 mph (5 knots: 2.6 m/s)
Visibility:
Ceiling:
at least 12,000 feet AGL
Clouds:
Few Clouds at 8,000 feet AGL
Weather:
no significant weather observed at this time
TAF text:
FM041300 02006KT 9999 FEW250 QNH3003INS T28/0320Z T14/0412Z FN00003
Forecast period:
Wednesday May 04 2016 13:00 UTC - Wednesday May 04 2016 15:00 UTC
Forecast type:
FROM: standard forecast or significant change
Winds:
from the NNE (020 degrees) at 6.9 mph (6 knots: 3.1 m/s)
Visibility:
Ceiling:
at least 12,000 feet AGL
Clouds:
Few Clouds at 25,000 feet AGL
Weather:
no significant weather observed at this time
FBO's on the Field
FBO Company Facility Photos Services Transportation Aviation Fuel Prices: Prices include tax
Catering Weather Repair Courtesy Rental Type 100LL JetA JetA+ MOGAS 8087
 
Add another FBO Facility Photos Catering Weather Repair Courtesy Rental Type 100LL JetA JetA+ MOGAS 8087
Services Transportation Aviation Fuel Prices: Prices include tax
There are no FBO's currently reporting fuel at NQI. List your FBO now


model-print
model-print
model-print
model-print